sensor_id;sensor_type;location;lat;lon;timestamp;pressure;altitude;pressure_sealevel;temperature;humidity
56668;BME280;42542;48.360;10.958;2024-03-25T00:01:57;95339.66;;;4.17;91.22
56668;BME280;42542;48.360;10.958;2024-03-25T00:04:58;95333.34;;;4.18;91.04
56668;BME280;42542;48.360;10.958;2024-03-25T00:07:59;95336.69;;;4.20;90.96
56668;BME280;42542;48.360;10.958;2024-03-25T00:11:00;95335.03;;;4.19;90.66
56668;BME280;42542;48.360;10.958;2024-03-25T00:14:01;95331.25;;;4.21;90.56
56668;BME280;42542;48.360;10.958;2024-03-25T00:17:02;95322.50;;;4.21;90.64
56668;BME280;42542;48.360;10.958;2024-03-25T00:20:04;95332.94;;;4.22;90.44
56668;BME280;42542;48.360;10.958;2024-03-25T00:23:06;95314.69;;;4.19;89.62
56668;BME280;42542;48.360;10.958;2024-03-25T00:26:07;95325.69;;;4.24;89.85
56668;BME280;42542;48.360;10.958;2024-03-25T00:29:08;95326.66;;;4.23;89.18
56668;BME280;42542;48.360;10.958;2024-03-25T00:32:08;95333.78;;;4.23;88.88
56668;BME280;42542;48.360;10.958;2024-03-25T00:35:09;95332.09;;;4.22;88.22
56668;BME280;42542;48.360;10.958;2024-03-25T00:38:10;95328.34;;;4.24;88.69
56668;BME280;42542;48.360;10.958;2024-03-25T00:41:10;95327.91;;;4.29;89.70
56668;BME280;42542;48.360;10.958;2024-03-25T00:44:11;95331.06;;;4.32;88.95
56668;BME280;42542;48.360;10.958;2024-03-25T00:47:12;95333.72;;;4.32;88.59
56668;BME280;42542;48.360;10.958;2024-03-25T00:50:13;95339.19;;;4.31;88.55
56668;BME280;42542;48.360;10.958;2024-03-25T00:53:16;95334.53;;;4.33;89.15
56668;BME280;42542;48.360;10.958;2024-03-25T00:56:17;95340.84;;;4.32;88.68
56668;BME280;42542;48.360;10.958;2024-03-25T00:59:18;95331.06;;;4.32;88.56
56668;BME280;42542;48.360;10.958;2024-03-25T01:02:19;95338.88;;;4.34;89.24
56668;BME280;42542;48.360;10.958;2024-03-25T01:05:20;95337.88;;;4.35;89.51
56668;BME280;42542;48.360;10.958;2024-03-25T01:08:21;95340.16;;;4.30;89.59
56668;BME280;42542;48.360;10.958;2024-03-25T01:11:22;95343.03;;;4.37;89.94
56668;BME280;42542;48.360;10.958;2024-03-25T01:14:23;95338.03;;;4.33;89.17
56668;BME280;42542;48.360;10.958;2024-03-25T01:17:24;95341.81;;;4.31;89.68
56668;BME280;42542;48.360;10.958;2024-03-25T01:20:25;95343.31;;;4.33;89.96
56668;BME280;42542;48.360;10.958;2024-03-25T01:23:26;95344.28;;;4.32;89.71
56668;BME280;42542;48.360;10.958;2024-03-25T01:26:29;95333.88;;;4.31;90.34
56668;BME280;42542;48.360;10.958;2024-03-25T01:29:30;95329.44;;;4.31;90.31
56668;BME280;42542;48.360;10.958;2024-03-25T01:32:31;95332.91;;;4.32;90.79
56668;BME280;42542;48.360;10.958;2024-03-25T01:35:32;95329.25;;;4.33;90.60
56668;BME280;42542;48.360;10.958;2024-03-25T01:38:33;95311.06;;;4.30;90.89
56668;BME280;42542;48.360;10.958;2024-03-25T01:41:35;95318.16;;;4.29;90.55
56668;BME280;42542;48.360;10.958;2024-03-25T01:44:36;95314.53;;;4.30;90.18
56668;BME280;42542;48.360;10.958;2024-03-25T01:47:38;95316.75;;;4.25;90.19
56668;BME280;42542;48.360;10.958;2024-03-25T01:50:43;95317.31;;;4.29;90.47
56668;BME280;42542;48.360;10.958;2024-03-25T01:53:46;95316.34;;;4.30;91.18
56668;BME280;42542;48.360;10.958;2024-03-25T01:56:47;95321.91;;;4.27;91.10
56668;BME280;42542;48.360;10.958;2024-03-25T01:59:49;95327.91;;;4.29;91.24
56668;BME280;42542;48.360;10.958;2024-03-25T02:02:50;95322.88;;;4.26;90.99
56668;BME280;42542;48.360;10.958;2024-03-25T02:05:55;95324.88;;;4.24;91.08
56668;BME280;42542;48.360;10.958;2024-03-25T02:08:58;95316.75;;;4.25;91.50
56668;BME280;42542;48.360;10.958;2024-03-25T02:12:01;95326.53;;;4.25;90.91
56668;BME280;42542;48.360;10.958;2024-03-25T02:15:04;95319.84;;;4.21;90.96
56668;BME280;42542;48.360;10.958;2024-03-25T02:18:06;95319.00;;;4.20;91.58
56668;BME280;42542;48.360;10.958;2024-03-25T02:21:07;95320.97;;;4.18;91.70
56668;BME280;42542;48.360;10.958;2024-03-25T02:24:09;95322.63;;;4.19;91.78
56668;BME280;42542;48.360;10.958;2024-03-25T02:27:10;95329.91;;;4.17;91.06
56668;BME280;42542;48.360;10.958;2024-03-25T02:30:15;95321.97;;;4.17;91.86
56668;BME280;42542;48.360;10.958;2024-03-25T02:33:17;95316.25;;;4.12;92.31
56668;BME280;42542;48.360;10.958;2024-03-25T02:36:18;95321.25;;;4.15;91.74
56668;BME280;42542;48.360;10.958;2024-03-25T02:39:19;95325.72;;;4.15;91.89
56668;BME280;42542;48.360;10.958;2024-03-25T02:42:20;95330.88;;;4.16;92.33
56668;BME280;42542;48.360;10.958;2024-03-25T02:45:22;95322.94;;;4.16;92.44
56668;BME280;42542;48.360;10.958;2024-03-25T02:48:23;95328.22;;;4.16;92.32
56668;BME280;42542;48.360;10.958;2024-03-25T02:51:24;95332.53;;;4.17;92.37
56668;BME280;42542;48.360;10.958;2024-03-25T02:54:24;95327.53;;;4.14;91.77
56668;BME280;42542;48.360;10.958;2024-03-25T02:57:26;95327.81;;;4.11;91.51
56668;BME280;42542;48.360;10.958;2024-03-25T03:00:26;95327.81;;;4.11;92.25
56668;BME280;42542;48.360;10.958;2024-03-25T03:03:27;95328.63;;;4.12;92.38
56668;BME280;42542;48.360;10.958;2024-03-25T03:06:28;95335.75;;;4.11;91.53
56668;BME280;42542;48.360;10.958;2024-03-25T03:13:26;95337.16;;;4.06;92.07
56668;BME280;42542;48.360;10.958;2024-03-25T03:16:27;95336.31;;;4.05;91.97
56668;BME280;42542;48.360;10.958;2024-03-25T03:19:27;95333.69;;;4.05;92.60
56668;BME280;42542;48.360;10.958;2024-03-25T03:22:29;95342.59;;;4.04;92.62
56668;BME280;42542;48.360;10.958;2024-03-25T03:25:31;95340.63;;;4.06;92.41
56668;BME280;42542;48.360;10.958;2024-03-25T03:28:31;95334.25;;;3.99;92.86
56668;BME280;42542;48.360;10.958;2024-03-25T03:31:33;95335.94;;;4.00;93.16
56668;BME280;42542;48.360;10.958;2024-03-25T03:34:34;95338.56;;;4.00;92.56
56668;BME280;42542;48.360;10.958;2024-03-25T03:37:36;95332.06;;;3.95;93.06
56668;BME280;42542;48.360;10.958;2024-03-25T03:40:37;95342.63;;;3.95;93.75
56668;BME280;42542;48.360;10.958;2024-03-25T03:43:38;95338.44;;;3.92;93.83
56668;BME280;42542;48.360;10.958;2024-03-25T03:46:39;95342.06;;;3.91;93.70
56668;BME280;42542;48.360;10.958;2024-03-25T03:49:40;95344.84;;;3.89;94.13
56668;BME280;42542;48.360;10.958;2024-03-25T03:52:41;95334.44;;;3.88;94.18
56668;BME280;42542;48.360;10.958;2024-03-25T03:55:42;95338.06;;;3.87;94.21
56668;BME280;42542;48.360;10.958;2024-03-25T03:58:43;95336.53;;;3.84;94.08
56668;BME280;42542;48.360;10.958;2024-03-25T04:01:44;95340.44;;;3.80;93.86
56668;BME280;42542;48.360;10.958;2024-03-25T04:04:45;95340.84;;;3.76;93.99
56668;BME280;42542;48.360;10.958;2024-03-25T04:07:45;95344.44;;;3.75;94.09
56668;BME280;42542;48.360;10.958;2024-03-25T04:10:47;95339.16;;;3.75;94.78
56668;BME280;42542;48.360;10.958;2024-03-25T04:13:48;95343.91;;;3.71;94.64
56668;BME280;42542;48.360;10.958;2024-03-25T04:16:49;95332.38;;;3.63;94.99
56668;BME280;42542;48.360;10.958;2024-03-25T04:19:52;95336.84;;;3.62;95.34
56668;BME280;42542;48.360;10.958;2024-03-25T04:22:53;95338.81;;;3.60;95.22
56668;BME280;42542;48.360;10.958;2024-03-25T04:25:54;95342.41;;;3.59;94.87
56668;BME280;42542;48.360;10.958;2024-03-25T04:28:55;95349.63;;;3.57;95.47
56668;BME280;42542;48.360;10.958;2024-03-25T04:31:56;95340.31;;;3.53;95.24
56668;BME280;42542;48.360;10.958;2024-03-25T04:34:57;95347.28;;;3.54;95.50
56668;BME280;42542;48.360;10.958;2024-03-25T04:37:58;95345.06;;;3.49;95.38
56668;BME280;42542;48.360;10.958;2024-03-25T04:40:59;95354.78;;;3.49;95.89
56668;BME280;42542;48.360;10.958;2024-03-25T04:44:00;95353.13;;;3.48;95.81
56668;BME280;42542;48.360;10.958;2024-03-25T04:47:01;95340.47;;;3.42;96.01
56668;BME280;42542;48.360;10.958;2024-03-25T04:50:02;95348.41;;;3.42;96.62
56668;BME280;42542;48.360;10.958;2024-03-25T04:53:03;95350.19;;;3.41;95.75
56668;BME280;42542;48.360;10.958;2024-03-25T04:56:05;95357.28;;;3.41;95.69
56668;BME280;42542;48.360;10.958;2024-03-25T04:59:05;95358.41;;;3.38;96.40
56668;BME280;42542;48.360;10.958;2024-03-25T05:02:06;95364.50;;;3.39;96.18
56668;BME280;42542;48.360;10.958;2024-03-25T05:05:07;95364.69;;;3.37;96.50
56668;BME280;42542;48.360;10.958;2024-03-25T05:08:08;95369.13;;;3.37;96.22
56668;BME280;42542;48.360;10.958;2024-03-25T05:11:09;95366.75;;;3.34;96.11
56668;BME280;42542;48.360;10.958;2024-03-25T05:14:10;95367.16;;;3.29;95.91
56668;BME280;42542;48.360;10.958;2024-03-25T05:17:10;95363.13;;;3.25;96.75
56668;BME280;42542;48.360;10.958;2024-03-25T05:20:11;95364.50;;;3.20;96.07
56668;BME280;42542;48.360;10.958;2024-03-25T05:23:14;95379.13;;;3.24;96.79
56668;BME280;42542;48.360;10.958;2024-03-25T05:26:16;95374.94;;;3.21;96.54
56668;BME280;42542;48.360;10.958;2024-03-25T05:29:17;95373.16;;;3.22;96.18
56668;BME280;42542;48.360;10.958;2024-03-25T05:32:18;95377.31;;;3.14;96.42
56668;BME280;42542;48.360;10.958;2024-03-25T05:35:22;95378.81;;;3.17;96.74
56668;BME280;42542;48.360;10.958;2024-03-25T05:38:23;95371.59;;;3.09;96.12
56668;BME280;42542;48.360;10.958;2024-03-25T05:41:24;95394.53;;;3.19;96.91
56668;BME280;42542;48.360;10.958;2024-03-25T05:44:25;95394.53;;;3.19;96.53
56668;BME280;42542;48.360;10.958;2024-03-25T05:47:26;95389.66;;;3.14;96.34
56668;BME280;42542;48.360;10.958;2024-03-25T05:50:27;95396.63;;;3.15;96.74
56668;BME280;42542;48.360;10.958;2024-03-25T05:53:28;95397.47;;;3.16;97.25
56668;BME280;42542;48.360;10.958;2024-03-25T05:56:29;95396.50;;;3.17;96.64
56668;BME280;42542;48.360;10.958;2024-03-25T05:59:35;95401.06;;;3.14;96.85
56668;BME280;42542;48.360;10.958;2024-03-25T06:02:36;95392.44;;;3.12;96.61
56668;BME280;42542;48.360;10.958;2024-03-25T06:05:38;95399.53;;;3.12;96.76
56668;BME280;42542;48.360;10.958;2024-03-25T06:08:40;95404.94;;;3.10;97.76
56668;BME280;42542;48.360;10.958;2024-03-25T06:11:40;95403.13;;;3.11;97.60
56668;BME280;42542;48.360;10.958;2024-03-25T06:14:43;95405.50;;;3.14;97.68
56668;BME280;42542;48.360;10.958;2024-03-25T06:17:45;95411.50;;;3.16;97.61
56668;BME280;42542;48.360;10.958;2024-03-25T06:20:48;95404.25;;;3.18;98.08
56668;BME280;42542;48.360;10.958;2024-03-25T06:23:48;95406.75;;;3.20;97.68
56668;BME280;42542;48.360;10.958;2024-03-25T06:26:49;95399.13;;;3.17;97.90
56668;BME280;42542;48.360;10.958;2024-03-25T06:29:52;95402.31;;;3.20;97.88
56668;BME280;42542;48.360;10.958;2024-03-25T06:33:14;95410.94;;;3.22;97.61
56668;BME280;42542;48.360;10.958;2024-03-25T06:36:33;95407.06;;;3.26;97.48
56668;BME280;42542;48.360;10.958;2024-03-25T06:39:36;95401.34;;;3.21;97.35
56668;BME280;42542;48.360;10.958;2024-03-25T06:42:37;95404.84;;;3.31;96.71
56668;BME280;42542;48.360;10.958;2024-03-25T06:45:38;95414.88;;;3.37;97.24
56668;BME280;42542;48.360;10.958;2024-03-25T06:48:39;95416.94;;;3.43;97.16
56668;BME280;42542;48.360;10.958;2024-03-25T06:51:40;95418.31;;;3.47;96.71
56668;BME280;42542;48.360;10.958;2024-03-25T06:54:41;95413.31;;;3.54;95.86
56668;BME280;42542;48.360;10.958;2024-03-25T06:57:42;95413.47;;;3.62;95.87
56668;BME280;42542;48.360;10.958;2024-03-25T07:00:43;95402.91;;;3.72;95.46
56668;BME280;42542;48.360;10.958;2024-03-25T07:03:44;95402.19;;;3.79;94.56
56668;BME280;42542;48.360;10.958;2024-03-25T07:06:45;95405.81;;;3.88;94.62
56668;BME280;42542;48.360;10.958;2024-03-25T07:09:46;95400.94;;;3.93;93.79
56668;BME280;42542;48.360;10.958;2024-03-25T07:12:46;95401.06;;;4.01;94.23
56668;BME280;42542;48.360;10.958;2024-03-25T07:15:47;95406.59;;;4.08;92.98
56668;BME280;42542;48.360;10.958;2024-03-25T07:18:48;95395.72;;;4.11;93.11
56668;BME280;42542;48.360;10.958;2024-03-25T07:21:49;95406.75;;;4.16;92.39
56668;BME280;42542;48.360;10.958;2024-03-25T07:24:49;95415.34;;;4.18;91.88
56668;BME280;42542;48.360;10.958;2024-03-25T07:27:56;95416.75;;;4.22;92.03
56668;BME280;42542;48.360;10.958;2024-03-25T07:30:57;95418.94;;;4.26;92.09
56668;BME280;42542;48.360;10.958;2024-03-25T07:33:59;95417.84;;;4.29;91.30
56668;BME280;42542;48.360;10.958;2024-03-25T07:36:59;95402.94;;;4.28;91.12
56668;BME280;42542;48.360;10.958;2024-03-25T07:40:01;95418.22;;;4.44;90.13
56668;BME280;42542;48.360;10.958;2024-03-25T07:43:01;95410.91;;;4.55;90.12
56668;BME280;42542;48.360;10.958;2024-03-25T07:46:04;95413.69;;;4.63;89.77
56668;BME280;42542;48.360;10.958;2024-03-25T07:49:06;95402.75;;;4.76;89.02
56668;BME280;42542;48.360;10.958;2024-03-25T07:52:08;95409.81;;;4.85;88.11
56668;BME280;42542;48.360;10.958;2024-03-25T07:55:08;95402.53;;;4.97;88.04
56668;BME280;42542;48.360;10.958;2024-03-25T07:58:09;95396.31;;;5.06;87.65
56668;BME280;42542;48.360;10.958;2024-03-25T08:01:10;95404.59;;;5.21;88.15
56668;BME280;42542;48.360;10.958;2024-03-25T08:04:11;95400.78;;;5.33;87.76
56668;BME280;42542;48.360;10.958;2024-03-25T08:07:11;95400.41;;;5.45;87.24
56668;BME280;42542;48.360;10.958;2024-03-25T08:10:12;95405.78;;;5.54;85.04
56668;BME280;42542;48.360;10.958;2024-03-25T08:13:13;95403.97;;;5.54;83.69
56668;BME280;42542;48.360;10.958;2024-03-25T08:16:15;95406.53;;;5.64;83.09
56668;BME280;42542;48.360;10.958;2024-03-25T08:19:15;95404.28;;;5.69;83.06
56668;BME280;42542;48.360;10.958;2024-03-25T08:22:17;95395.50;;;5.68;81.98
56668;BME280;42542;48.360;10.958;2024-03-25T08:25:17;95399.63;;;5.71;81.90
56668;BME280;42542;48.360;10.958;2024-03-25T08:28:19;95397.81;;;5.71;82.24
56668;BME280;42542;48.360;10.958;2024-03-25T08:31:20;95390.34;;;5.67;81.75
56668;BME280;42542;48.360;10.958;2024-03-25T08:34:22;95396.47;;;5.67;81.77
56668;BME280;42542;48.360;10.958;2024-03-25T08:37:22;95386.84;;;5.66;82.29
56668;BME280;42542;48.360;10.958;2024-03-25T08:40:24;95392.38;;;5.73;82.56
56668;BME280;42542;48.360;10.958;2024-03-25T08:43:25;95386.09;;;5.74;81.86
56668;BME280;42542;48.360;10.958;2024-03-25T08:46:26;95384.28;;;5.74;80.71
56668;BME280;42542;48.360;10.958;2024-03-25T08:49:27;95381.97;;;5.79;81.10
56668;BME280;42542;48.360;10.958;2024-03-25T08:52:28;95383.88;;;5.87;80.52
56668;BME280;42542;48.360;10.958;2024-03-25T08:55:28;95388.72;;;5.92;80.63
56668;BME280;42542;48.360;10.958;2024-03-25T08:58:29;95380.78;;;5.92;80.72
56668;BME280;42542;48.360;10.958;2024-03-25T09:01:30;95366.03;;;5.89;79.59
56668;BME280;42542;48.360;10.958;2024-03-25T09:04:31;95378.34;;;5.98;79.30
56668;BME280;42542;48.360;10.958;2024-03-25T09:07:31;95373.56;;;6.02;79.52
56668;BME280;42542;48.360;10.958;2024-03-25T09:10:33;95374.63;;;6.09;80.02
56668;BME280;42542;48.360;10.958;2024-03-25T09:13:53;95370.66;;;6.13;79.46
56668;BME280;42542;48.360;10.958;2024-03-25T09:16:54;95366.56;;;6.18;78.52
56668;BME280;42542;48.360;10.958;2024-03-25T09:19:55;95360.84;;;6.31;79.44
56668;BME280;42542;48.360;10.958;2024-03-25T09:22:56;95364.53;;;6.38;78.52
56668;BME280;42542;48.360;10.958;2024-03-25T09:25:57;95361.25;;;6.44;76.90
56668;BME280;42542;48.360;10.958;2024-03-25T09:28:58;95353.81;;;6.48;75.94
56668;BME280;42542;48.360;10.958;2024-03-25T09:31:59;95354.00;;;6.54;76.51
56668;BME280;42542;48.360;10.958;2024-03-25T09:35:00;95348.06;;;6.60;74.72
56668;BME280;42542;48.360;10.958;2024-03-25T09:38:00;95350.22;;;6.65;74.67
56668;BME280;42542;48.360;10.958;2024-03-25T09:41:03;95326.84;;;6.69;72.00
56668;BME280;42542;48.360;10.958;2024-03-25T09:44:05;95323.22;;;6.78;72.12
56668;BME280;42542;48.360;10.958;2024-03-25T09:47:06;95319.75;;;6.85;71.72
56668;BME280;42542;48.360;10.958;2024-03-25T09:50:08;95323.28;;;6.94;67.96
56668;BME280;42542;48.360;10.958;2024-03-25T09:53:09;95320.81;;;7.00;65.67
56668;BME280;42542;48.360;10.958;2024-03-25T09:56:11;95327.97;;;7.08;64.10
56668;BME280;42542;48.360;10.958;2024-03-25T09:59:13;95327.16;;;7.16;63.38
56668;BME280;42542;48.360;10.958;2024-03-25T10:02:16;95320.19;;;7.23;62.20
56668;BME280;42542;48.360;10.958;2024-03-25T10:05:18;95306.09;;;7.30;62.97
56668;BME280;42542;48.360;10.958;2024-03-25T10:08:21;95308.44;;;7.41;62.10
56668;BME280;42542;48.360;10.958;2024-03-25T10:11:22;95311.09;;;7.58;61.58
56668;BME280;42542;48.360;10.958;2024-03-25T10:14:23;95311.75;;;7.60;59.65
56668;BME280;42542;48.360;10.958;2024-03-25T10:17:23;95305.78;;;7.66;57.11
56668;BME280;42542;48.360;10.958;2024-03-25T10:20:25;95298.94;;;7.71;56.73
56668;BME280;42542;48.360;10.958;2024-03-25T10:23:26;95296.97;;;7.81;57.07
56668;BME280;42542;48.360;10.958;2024-03-25T10:26:28;95294.47;;;7.88;55.64
56668;BME280;42542;48.360;10.958;2024-03-25T10:29:29;95292.78;;;7.95;56.48
56668;BME280;42542;48.360;10.958;2024-03-25T10:32:29;95278.81;;;8.01;57.11
56668;BME280;42542;48.360;10.958;2024-03-25T10:35:33;95275.97;;;8.11;55.95
56668;BME280;42542;48.360;10.958;2024-03-25T10:38:35;95275.78;;;8.20;54.49
56668;BME280;42542;48.360;10.958;2024-03-25T10:41:36;95266.59;;;8.23;52.89
56668;BME280;42542;48.360;10.958;2024-03-25T10:44:38;95257.94;;;8.29;55.97
56668;BME280;42542;48.360;10.958;2024-03-25T10:47:39;95254.28;;;8.38;54.85
56668;BME280;42542;48.360;10.958;2024-03-25T10:50:43;95252.44;;;8.47;55.71
56668;BME280;42542;48.360;10.958;2024-03-25T10:53:46;95244.09;;;8.50;55.82
56668;BME280;42542;48.360;10.958;2024-03-25T10:56:48;95243.41;;;8.56;55.67
56668;BME280;42542;48.360;10.958;2024-03-25T10:59:52;95242.22;;;8.58;52.45
56668;BME280;42542;48.360;10.958;2024-03-25T11:02:58;95241.22;;;8.59;52.81
56668;BME280;42542;48.360;10.958;2024-03-25T11:05:59;95236.41;;;8.55;50.51
56668;BME280;42542;48.360;10.958;2024-03-25T11:09:01;95230.41;;;8.53;51.11
56668;BME280;42542;48.360;10.958;2024-03-25T11:12:02;95219.78;;;8.53;52.26
56668;BME280;42542;48.360;10.958;2024-03-25T11:15:04;95214.41;;;8.61;54.05
56668;BME280;42542;48.360;10.958;2024-03-25T11:18:10;95206.00;;;8.72;52.90
56668;BME280;42542;48.360;10.958;2024-03-25T11:21:11;95198.00;;;8.72;51.65
56668;BME280;42542;48.360;10.958;2024-03-25T11:24:13;95189.19;;;8.72;50.90
56668;BME280;42542;48.360;10.958;2024-03-25T11:27:14;95187.06;;;8.67;50.21
56668;BME280;42542;48.360;10.958;2024-03-25T11:30:15;95184.56;;;8.66;50.06
56668;BME280;42542;48.360;10.958;2024-03-25T11:33:16;95179.06;;;8.67;49.88
56668;BME280;42542;48.360;10.958;2024-03-25T11:36:17;95177.19;;;8.76;50.50
56668;BME280;42542;48.360;10.958;2024-03-25T11:39:19;95174.94;;;8.87;50.23
56668;BME280;42542;48.360;10.958;2024-03-25T11:42:20;95178.03;;;8.99;50.65
56668;BME280;42542;48.360;10.958;2024-03-25T11:45:21;95173.50;;;9.08;50.68
56668;BME280;42542;48.360;10.958;2024-03-25T11:48:24;95163.78;;;9.15;50.97
56668;BME280;42542;48.360;10.958;2024-03-25T11:51:24;95165.00;;;9.27;50.41
56668;BME280;42542;48.360;10.958;2024-03-25T11:54:27;95154.72;;;9.38;50.28
56668;BME280;42542;48.360;10.958;2024-03-25T11:57:29;95147.47;;;9.47;48.76
56668;BME280;42542;48.360;10.958;2024-03-25T12:00:30;95153.19;;;9.59;48.77
56668;BME280;42542;48.360;10.958;2024-03-25T12:03:33;95148.59;;;9.67;48.06
56668;BME280;42542;48.360;10.958;2024-03-25T12:06:35;95144.66;;;9.78;48.13
56668;BME280;42542;48.360;10.958;2024-03-25T12:09:36;95136.75;;;9.85;47.27
56668;BME280;42542;48.360;10.958;2024-03-25T12:12:56;95140.69;;;9.89;47.19
56668;BME280;42542;48.360;10.958;2024-03-25T12:15:57;95132.16;;;9.93;47.67
56668;BME280;42542;48.360;10.958;2024-03-25T12:18:59;95128.09;;;9.97;49.28
56668;BME280;42542;48.360;10.958;2024-03-25T12:22:00;95125.59;;;9.96;47.62
56668;BME280;42542;48.360;10.958;2024-03-25T12:25:03;95119.25;;;9.97;47.80
56668;BME280;42542;48.360;10.958;2024-03-25T12:28:09;95118.59;;;9.95;47.35
56668;BME280;42542;48.360;10.958;2024-03-25T12:31:10;95111.81;;;9.92;47.28
56668;BME280;42542;48.360;10.958;2024-03-25T12:34:16;95108.56;;;9.97;46.53
56668;BME280;42542;48.360;10.958;2024-03-25T12:37:17;95098.91;;;9.96;45.75
56668;BME280;42542;48.360;10.958;2024-03-25T12:40:26;95095.69;;;10.00;47.32
56668;BME280;42542;48.360;10.958;2024-03-25T12:43:27;95083.97;;;10.01;46.03
56668;BME280;42542;48.360;10.958;2024-03-25T12:46:28;95088.53;;;10.01;45.83
56668;BME280;42542;48.360;10.958;2024-03-25T12:49:30;95088.63;;;9.93;45.94
56668;BME280;42542;48.360;10.958;2024-03-25T12:52:30;95088.06;;;9.83;45.18
56668;BME280;42542;48.360;10.958;2024-03-25T12:55:31;95068.94;;;9.79;45.07
56668;BME280;42542;48.360;10.958;2024-03-25T12:58:32;95067.09;;;9.79;45.51
56668;BME280;42542;48.360;10.958;2024-03-25T13:01:33;95065.13;;;9.88;46.54
56668;BME280;42542;48.360;10.958;2024-03-25T13:04:34;95056.84;;;9.98;46.48
56668;BME280;42542;48.360;10.958;2024-03-25T13:07:38;95050.09;;;10.02;46.26
56668;BME280;42542;48.360;10.958;2024-03-25T13:10:38;95050.75;;;10.04;45.26
56668;BME280;42542;48.360;10.958;2024-03-25T13:13:40;95036.56;;;10.03;46.38
56668;BME280;42542;48.360;10.958;2024-03-25T13:16:40;95025.97;;;10.10;46.72
56668;BME280;42542;48.360;10.958;2024-03-25T13:19:42;95018.34;;;10.07;45.68
56668;BME280;42542;48.360;10.958;2024-03-25T13:22:42;95015.09;;;10.11;45.74
56668;BME280;42542;48.360;10.958;2024-03-25T13:25:45;95017.69;;;10.20;45.77
56668;BME280;42542;48.360;10.958;2024-03-25T13:28:46;95006.53;;;10.16;44.21
56668;BME280;42542;48.360;10.958;2024-03-25T13:31:47;95014.94;;;10.13;43.71
56668;BME280;42542;48.360;10.958;2024-03-25T13:34:48;94999.66;;;10.07;44.12
56668;BME280;42542;48.360;10.958;2024-03-25T13:37:49;95006.44;;;10.09;43.40
56668;BME280;42542;48.360;10.958;2024-03-25T13:40:50;94984.41;;;10.01;43.65
56668;BME280;42542;48.360;10.958;2024-03-25T13:43:50;94980.63;;;9.95;42.88
56668;BME280;42542;48.360;10.958;2024-03-25T13:46:51;94984.94;;;9.96;42.87
56668;BME280;42542;48.360;10.958;2024-03-25T13:50:05;94975.50;;;9.94;43.30
56668;BME280;42542;48.360;10.958;2024-03-25T13:53:09;94978.41;;;9.99;43.46
56668;BME280;42542;48.360;10.958;2024-03-25T13:56:10;94963.06;;;10.01;43.14
56668;BME280;42542;48.360;10.958;2024-03-25T13:59:11;94959.81;;;10.05;43.61
56668;BME280;42542;48.360;10.958;2024-03-25T14:02:12;94962.28;;;10.07;43.59
56668;BME280;42542;48.360;10.958;2024-03-25T14:05:13;94956.19;;;10.13;42.96
56668;BME280;42542;48.360;10.958;2024-03-25T14:08:15;94957.47;;;10.17;43.77
56668;BME280;42542;48.360;10.958;2024-03-25T14:11:15;94955.63;;;10.17;43.34
56668;BME280;42542;48.360;10.958;2024-03-25T14:14:17;94945.28;;;10.29;43.50
56668;BME280;42542;48.360;10.958;2024-03-25T14:17:18;94942.97;;;10.47;43.01
56668;BME280;42542;48.360;10.958;2024-03-25T14:20:19;94929.81;;;10.74;43.01
56668;BME280;42542;48.360;10.958;2024-03-25T14:23:19;94932.31;;;11.10;42.29
56668;BME280;42542;48.360;10.958;2024-03-25T14:26:21;94928.84;;;11.44;41.18
56668;BME280;42542;48.360;10.958;2024-03-25T14:29:22;94921.78;;;11.77;41.56
56668;BME280;42542;48.360;10.958;2024-03-25T14:32:24;94914.09;;;12.22;40.79
56668;BME280;42542;48.360;10.958;2024-03-25T14:35:24;94902.97;;;12.58;40.48
56668;BME280;42542;48.360;10.958;2024-03-25T14:38:26;94901.72;;;12.93;40.32
56668;BME280;42542;48.360;10.958;2024-03-25T14:41:26;94894.06;;;13.23;38.73
56668;BME280;42542;48.360;10.958;2024-03-25T14:44:27;94889.84;;;13.53;39.13
56668;BME280;42542;48.360;10.958;2024-03-25T14:47:28;94879.16;;;13.85;38.45
56668;BME280;42542;48.360;10.958;2024-03-25T14:50:28;94873.91;;;14.03;37.58
56668;BME280;42542;48.360;10.958;2024-03-25T14:53:29;94862.59;;;14.19;38.00
56668;BME280;42542;48.360;10.958;2024-03-25T14:56:30;94847.38;;;14.44;37.04
56668;BME280;42542;48.360;10.958;2024-03-25T14:59:30;94851.69;;;14.70;36.69
56668;BME280;42542;48.360;10.958;2024-03-25T15:02:31;94840.59;;;14.85;35.62
56668;BME280;42542;48.360;10.958;2024-03-25T15:05:32;94842.63;;;14.90;35.13
56668;BME280;42542;48.360;10.958;2024-03-25T15:08:33;94840.03;;;15.01;35.81
56668;BME280;42542;48.360;10.958;2024-03-25T15:11:34;94838.47;;;15.12;35.46
56668;BME280;42542;48.360;10.958;2024-03-25T15:14:35;94839.97;;;15.26;35.20
56668;BME280;42542;48.360;10.958;2024-03-25T15:17:36;94834.78;;;15.43;35.05
56668;BME280;42542;48.360;10.958;2024-03-25T15:20:38;94831.56;;;15.52;34.25
56668;BME280;42542;48.360;10.958;2024-03-25T15:23:38;94830.91;;;15.39;33.98
56668;BME280;42542;48.360;10.958;2024-03-25T15:26:40;94822.00;;;15.38;34.05
56668;BME280;42542;48.360;10.958;2024-03-25T15:29:41;94817.53;;;15.32;33.28
56668;BME280;42542;48.360;10.958;2024-03-25T15:32:43;94812.06;;;15.20;33.94
56668;BME280;42542;48.360;10.958;2024-03-25T15:35:44;94811.63;;;15.23;34.59
56668;BME280;42542;48.360;10.958;2024-03-25T15:38:45;94795.03;;;15.08;33.32
56668;BME280;42542;48.360;10.958;2024-03-25T15:41:46;94802.84;;;14.92;33.39
56668;BME280;42542;48.360;10.958;2024-03-25T15:44:50;94801.81;;;14.74;34.31
56668;BME280;42542;48.360;10.958;2024-03-25T15:47:53;94790.22;;;14.74;34.47
56668;BME280;42542;48.360;10.958;2024-03-25T15:50:54;94789.72;;;14.83;34.49
56668;BME280;42542;48.360;10.958;2024-03-25T15:53:55;94774.22;;;14.79;34.26
56668;BME280;42542;48.360;10.958;2024-03-25T15:56:56;94768.72;;;14.74;33.45
56668;BME280;42542;48.360;10.958;2024-03-25T15:59:57;94757.25;;;14.60;33.94
56668;BME280;42542;48.360;10.958;2024-03-25T16:02:58;94762.41;;;14.37;33.84